Time;durP1;ratioP1;P1;durP2;ratioP2;P2;SDS_P1;SDS_P2;PMS_P1;PMS_P2;Temp;Humidity;BMP_temperature;BMP_pressure;BME280_temperature;BME280_humidity;BME280_pressure;Samples;Min_cycle;Max_cycle;Signal;HPM_P1;HPM_P2
2023/06/01 02:09:51;;;;;;;6.90;2.20;;;;;;;;;;6170643;23;20128;-50
2023/06/01 02:12:25;;;;;;;4.80;1.95;;;;;;;;;;6173805;23;20128;-48
2023/06/01 02:14:59;;;;;;;8.65;2.47;;;;;;;;;;6172643;23;20029;-51
2023/06/01 02:17:27;;;;;;;;;;;;;;;;;;6175365;23;20024;-51
2023/06/01 02:20:02;;;;;;;5.68;2.00;;;;;;;;;;6173996;23;19920;-51
2023/06/01 02:22:36;;;;;;;5.80;1.92;;;;;;;;;;6172967;23;20388;-49
2023/06/01 02:25:04;;;;;;;3.53;1.60;;;;;;;;;;6173930;23;20025;-52
2023/06/01 02:27:32;;;;;;;5.72;1.90;;;;;;;;;;6175653;23;20027;-57
2023/06/01 02:30:07;;;;;;;4.43;2.13;;;;;;;;;;6173038;23;20045;-56
2023/06/01 02:32:34;;;;;;;4.65;1.60;;;;;;;;;;6173098;23;20095;-57
2023/06/01 02:35:08;;;;;;;4.82;2.20;;;;;;;;;;6174343;23;20025;-53
2023/06/01 02:37:35;;;;;;;5.10;1.77;;;;;;;;;;6172864;23;20436;-56
2023/06/01 02:40:03;;;;;;;9.23;2.00;;;;;;;;;;6174276;23;20084;-56
2023/06/01 02:42:38;;;;;;;3.55;1.88;;;;;;;;;;6174583;23;20028;-56
2023/06/01 02:45:09;;;;;;;5.28;2.13;;;;;;;;;;6172845;23;20017;-66
2023/06/01 02:47:44;;;;;;;3.08;1.73;;;;;;;;;;6175243;23;20040;-66
2023/06/01 02:50:12;;;;;;;4.80;1.58;;;;;;;;;;6173928;23;20056;-66
2023/06/01 02:52:39;;;;;;;3.70;1.55;;;;;;;;;;6172875;23;20231;-66
2023/06/01 02:55:13;;;;;;;6.13;1.85;;;;;;;;;;6173902;23;20052;-50
2023/06/01 02:57:40;;;;;;;8.05;1.52;;;;;;;;;;6174617;23;20041;-51
2023/06/01 03:00:17;;;;;;;2.78;1.20;;;;;;;;;;6174268;23;20025;-51
2023/06/01 03:02:47;;;;;;;3.67;1.20;;;;;;;;;;6175817;23;20029;-49
2023/06/01 03:05:21;;;;;;;4.15;1.30;;;;;;;;;;6175817;23;20029;-50
2023/06/01 03:07:48;;;;;;;4.78;1.45;;;;;;;;;;6173405;23;20428;-50
2023/06/01 03:10:29;;;;;;;2.15;1.20;;;;;;;;;;6174929;23;20496;-49
2023/06/01 03:12:56;;;;;;;3.97;1.20;;;;;;;;;;6175617;23;20084;-48
2023/06/01 03:15:30;;;;;;;2.55;1.20;;;;;;;;;;6176696;23;20095;-59
2023/06/01 03:17:57;;;;;;;2.53;1.10;;;;;;;;;;6177226;23;20029;-59
2023/06/01 03:20:25;;;;;;;6.65;1.27;;;;;;;;;;6175457;23;20769;-59
2023/06/01 03:22:58;;;;;;;4.43;1.20;;;;;;;;;;6174701;23;20032;-57
2023/06/01 03:25:25;;;;;;;2.72;1.08;;;;;;;;;;6175369;23;20048;-60
2023/06/01 03:27:59;;;;;;;2.00;1.10;;;;;;;;;;6176947;23;20029;-58
2023/06/01 03:30:26;;;;;;;1.80;0.65;;;;;;;;;;6175981;23;20025;-59
2023/06/01 03:33:00;;;;;;;2.65;1.15;;;;;;;;;;6177215;23;20087;-60
2023/06/01 03:35:27;;;;;;;3.42;0.88;;;;;;;;;;6176668;23;20021;-58
2023/06/01 03:38:01;;;;;;;4.78;0.80;;;;;;;;;;6174641;23;20029;-60
2023/06/01 03:40:28;;;;;;;3.83;0.90;;;;;;;;;;6176783;23;20075;-53
2023/06/01 03:42:55;;;;;;;3.95;0.80;;;;;;;;;;6175922;23;20021;-54
2023/06/01 03:45:29;;;;;;;3.65;1.15;;;;;;;;;;6173950;23;20420;-54
2023/06/01 03:48:03;;;;;;;3.80;0.77;;;;;;;;;;6175791;23;20029;-48
2023/06/01 03:50:31;;;;;;;3.15;1.00;;;;;;;;;;6176140;23;20029;-51
2023/06/01 03:53:05;;;;;;;3.42;1.20;;;;;;;;;;6171639;23;20029;-49
2023/06/01 03:55:32;;;;;;;4.53;1.00;;;;;;;;;;6169653;23;20025;-51
2023/06/01 03:58:07;;;;;;;2.55;0.65;;;;;;;;;;6174554;23;20139;-53
2023/06/01 04:00:36;;;;;;;5.68;1.20;;;;;;;;;;6172993;23;20021;-46
2023/06/01 04:03:06;;;;;;;10.70;1.70;;;;;;;;;;6175464;23;20036;-58
2023/06/01 04:05:41;;;;;;;2.22;0.82;;;;;;;;;;6174124;23;20017;-61
2023/06/01 04:08:15;;;;;;;;;;;;;;;;;;6174613;23;20032;-58
2023/06/01 04:10:56;;;;;;;1.55;0.98;;;;;;;;;;6171250;23;19920;-60
2023/06/01 04:13:30;;;;;;;2.97;1.10;;;;;;;;;;6172433;23;20025;-60
2023/06/01 04:16:04;;;;;;;3.95;0.95;;;;;;;;;;6169239;23;20028;-60
2023/06/01 04:18:31;;;;;;;3.63;1.05;;;;;;;;;;6171955;23;20025;-56
2023/06/01 04:20:59;;;;;;;5.00;0.93;;;;;;;;;;6175738;23;20430;-60
2023/06/01 04:23:33;;;;;;;2.75;1.10;;;;;;;;;;6175247;23;20523;-60
2023/06/01 04:26:07;;;;;;;3.22;0.80;;;;;;;;;;6172643;23;20025;-59
2023/06/01 04:28:43;;;;;;;3.58;0.80;;;;;;;;;;6174874;23;20025;-60
2023/06/01 04:31:17;;;;;;;5.55;0.93;;;;;;;;;;6174394;23;20017;-60
2023/06/01 04:33:45;;;;;;;0.93;0.80;;;;;;;;;;6173712;23;20029;-60
2023/06/01 04:36:27;;;;;;;2.75;0.80;;;;;;;;;;6172871;23;20584;-59
2023/06/01 04:38:54;;;;;;;4.03;0.93;;;;;;;;;;6172760;23;20388;-60
2023/06/01 04:41:30;;;;;;;6.63;0.90;;;;;;;;;;6173469;23;20029;-58
2023/06/01 04:44:05;;;;;;;3.05;0.90;;;;;;;;;;6169800;23;20774;-59
2023/06/01 04:46:40;;;;;;;2.53;0.75;;;;;;;;;;6173920;23;20076;-59
2023/06/01 04:49:11;;;;;;;1.80;0.82;;;;;;;;;;6172943;23;20089;-59
2023/06/01 04:51:40;;;;;;;4.70;0.73;;;;;;;;;;6175066;23;20025;-59
2023/06/01 04:54:13;;;;;;;1.60;0.85;;;;;;;;;;6170244;23;20103;-59
2023/06/01 04:56:40;;;;;;;4.50;1.08;;;;;;;;;;6170183;23;20030;-59
2023/06/01 04:59:07;;;;;;;9.27;1.10;;;;;;;;;;6175252;23;20505;-60
2023/06/01 05:01:41;;;;;;;4.15;0.88;;;;;;;;;;6176942;23;20083;-59
2023/06/01 05:04:15;;;;;;;3.60;0.75;;;;;;;;;;6176935;23;20471;-50
2023/06/01 05:06:43;;;;;;;4.80;0.85;;;;;;;;;;6175327;23;20031;-48
2023/06/01 05:09:10;;;;;;;0.88;0.70;;;;;;;;;;6174343;23;20392;-50
2023/06/01 05:11:44;;;;;;;2.60;0.70;;;;;;;;;;6176347;23;20028;-51
2023/06/01 05:14:11;;;;;;;4.15;0.65;;;;;;;;;;6172311;23;20021;-53
2023/06/01 05:16:39;;;;;;;3.22;1.08;;;;;;;;;;6176623;23;20044;-65
2023/06/01 05:19:12;;;;;;;2.13;0.90;;;;;;;;;;6170506;23;20029;-65
2023/06/01 05:21:40;;;;;;;1.70;0.65;;;;;;;;;;6175573;23;20533;-65
2023/06/01 05:24:14;;;;;;;1.75;0.90;;;;;;;;;;6175756;23;20420;-65
2023/06/01 05:26:41;;;;;;;1.83;0.93;;;;;;;;;;6174836;23;20024;-65
2023/06/01 05:29:15;;;;;;;2.17;0.85;;;;;;;;;;6172627;23;20025;-64
2023/06/01 05:31:42;;;;;;;2.90;0.50;;;;;;;;;;6172046;23;20056;-65
2023/06/01 05:34:16;;;;;;;3.65;0.82;;;;;;;;;;6176508;23;20028;-60
2023/06/01 05:36:43;;;;;;;3.25;0.65;;;;;;;;;;6175061;23;20021;-60
2023/06/01 05:39:17;;;;;;;3.10;0.70;;;;;;;;;;6174414;23;20025;-60
2023/06/01 05:41:44;;;;;;;2.88;0.90;;;;;;;;;;6175869;23;20396;-60
2023/06/01 05:44:12;;;;;;;2.67;0.77;;;;;;;;;;6174512;23;20406;-65
2023/06/01 05:46:45;;;;;;;2.83;0.40;;;;;;;;;;6176331;23;20040;-52
2023/06/01 05:49:19;;;;;;;0.68;0.50;;;;;;;;;;6174710;23;20021;-50
2023/06/01 05:51:47;;;;;;;1.55;0.50;;;;;;;;;;6174137;23;20099;-49
2023/06/01 05:54:21;;;;;;;2.38;0.50;;;;;;;;;;6174629;23;20087;-48
2023/06/01 05:56:48;;;;;;;14.68;1.02;;;;;;;;;;6175930;23;20091;-52
2023/06/01 05:59:22;;;;;;;1.85;0.57;;;;;;;;;;6171011;23;20025;-49
2023/06/01 06:01:50;;;;;;;2.65;0.88;;;;;;;;;;6172691;23;20025;-53
2023/06/01 06:04:24;;;;;;;3.20;0.63;;;;;;;;;;6174374;23;20021;-56
2023/06/01 06:06:52;;;;;;;2.08;1.02;;;;;;;;;;6171748;23;20031;-55
2023/06/01 06:09:34;;;;;;;1.25;0.63;;;;;;;;;;6173921;23;20025;-55
2023/06/01 06:12:01;;;;;;;4.93;1.00;;;;;;;;;;6174929;23;20080;-47
2023/06/01 06:14:35;;;;;;;0.70;0.52;;;;;;;;;;6174564;23;20059;-65
2023/06/01 06:17:02;;;;;;;1.70;0.50;;;;;;;;;;6175725;23;20021;-65
2023/06/01 06:19:36;;;;;;;4.10;0.98;;;;;;;;;;6174500;23;20055;-65
2023/06/01 06:22:03;;;;;;;;;;;;;;;;;;6175363;23;20477;-65
2023/06/01 06:24:37;;;;;;;2.28;0.70;;;;;;;;;;6174543;23;19920;-65
2023/06/01 06:27:05;;;;;;;4.35;0.75;;;;;;;;;;6174975;23;20118;-65
2023/06/01 06:29:32;;;;;;;1.05;0.52;;;;;;;;;;6175855;23;20084;-52
2023/06/01 06:32:06;;;;;;;2.65;0.95;;;;;;;;;;6170553;23;20021;-50
2023/06/01 06:34:35;;;;;;;;;;;;;;;;;;6173241;23;20084;-52
2023/06/01 06:37:11;;;;;;;4.85;1.00;;;;;;;;;;6175919;23;19920;-49
2023/06/01 06:39:38;;;;;;;6.75;1.17;;;;;;;;;;6173607;23;20385;-55
2023/06/01 06:42:05;;;;;;;3.38;0.90;;;;;;;;;;6174485;23;20028;-59
2023/06/01 06:44:39;;;;;;;5.57;1.63;;;;;;;;;;6175341;23;20020;-61
2023/06/01 06:47:06;;;;;;;2.63;1.30;;;;;;;;;;6174571;23;20029;-59
2023/06/01 06:49:40;;;;;;;8.20;1.50;;;;;;;;;;6173164;23;20075;-60
2023/06/01 06:52:09;;;;;;;2.42;1.23;;;;;;;;;;6175182;23;20029;-60
2023/06/01 06:54:40;;;;;;;14.25;2.38;;;;;;;;;;6174291;23;20084;-60
2023/06/01 06:57:14;;;;;;;6.18;1.92;;;;;;;;;;6173513;23;20029;-60
2023/06/01 06:59:49;;;;;;;8.90;1.77;;;;;;;;;;6172836;23;20032;-65
2023/06/01 07:02:22;;;;;;;9.02;1.73;;;;;;;;;;6174075;23;20025;-65
2023/06/01 07:04:49;;;;;;;5.65;2.10;;;;;;;;;;6168842;23;20025;-65
2023/06/01 07:07:17;;;;;;;7.57;1.92;;;;;;;;;;6174604;23;20409;-65
2023/06/01 07:09:57;;;;;;;7.15;1.85;;;;;;;;;;6175227;23;20424;-54
2023/06/01 07:12:24;;;;;;;5.38;2.10;;;;;;;;;;6174314;23;20017;-54
2023/06/01 07:14:58;;;;;;;5.03;1.88;;;;;;;;;;6175030;23;20025;-55
2023/06/01 07:17:26;;;;;;;3.30;2.10;;;;;;;;;;6174046;23;20036;-55
2023/06/01 07:20:01;;;;;;;4.80;1.70;;;;;;;;;;6175056;23;20040;-55
2023/06/01 07:22:28;;;;;;;7.68;2.10;;;;;;;;;;6174571;23;20473;-52
2023/06/01 07:24:55;;;;;;;4.13;1.90;;;;;;;;;;6170807;23;20492;-56
2023/06/01 07:27:29;;;;;;;5.93;1.90;;;;;;;;;;6172039;23;20552;-54
2023/06/01 07:29:56;;;;;;;5.85;2.80;;;;;;;;;;6175235;23;20017;-54
2023/06/01 07:32:30;;;;;;;5.18;2.13;;;;;;;;;;6174167;23;20029;-57
2023/06/01 07:34:59;;;;;;;5.28;2.58;;;;;;;;;;6173752;23;20025;-54
2023/06/01 07:37:26;;;;;;;7.15;2.38;;;;;;;;;;6174702;23;20087;-54
2023/06/01 07:40:00;;;;;;;8.20;2.03;;;;;;;;;;6174250;23;20028;-65
2023/06/01 07:42:27;;;;;;;6.90;2.38;;;;;;;;;;6172279;23;20025;-66
2023/06/01 07:45:02;;;;;;;9.73;2.40;;;;;;;;;;6177056;23;20555;-65
2023/06/01 07:47:29;;;;;;;4.00;2.20;;;;;;;;;;6176058;23;20025;-65
2023/06/01 07:50:04;;;;;;;9.10;2.47;;;;;;;;;;6175909;23;20025;-65
2023/06/01 07:52:32;;;;;;;6.28;2.30;;;;;;;;;;6176209;23;20029;-65
2023/06/01 07:54:59;;;;;;;4.85;2.35;;;;;;;;;;6177678;23;20144;-52
2023/06/01 07:57:33;;;;;;;5.22;2.80;;;;;;;;;;6174615;23;20083;-55
2023/06/01 08:00:00;;;;;;;7.35;2.42;;;;;;;;;;6177190;23;20020;-54
2023/06/01 08:02:34;;;;;;;7.18;2.40;;;;;;;;;;6175514;23;20025;-53
2023/06/01 08:05:02;;;;;;;5.50;2.35;;;;;;;;;;6174787;23;20095;-49
2023/06/01 08:07:30;;;;;;;3.67;2.20;;;;;;;;;;6176828;23;20029;-50
2023/06/01 08:10:11;;;;;;;5.22;2.85;;;;;;;;;;6175988;23;20411;-59
2023/06/01 08:12:47;;;;;;;4.30;2.38;;;;;;;;;;6174693;23;20032;-58
2023/06/01 08:15:15;;;;;;;8.68;2.22;;;;;;;;;;6175415;23;20552;-59
2023/06/01 08:17:43;;;;;;;6.15;2.33;;;;;;;;;;6175705;23;20497;-59
2023/06/01 08:20:22;;;;;;;16.25;2.33;;;;;;;;;;6174615;23;20092;-59
2023/06/01 08:22:50;;;;;;;3.65;2.20;;;;;;;;;;6176590;23;20028;-64
2023/06/01 08:25:24;;;;;;;7.63;2.60;;;;;;;;;;6176426;23;20025;-65
2023/06/01 08:27:52;;;;;;;5.43;2.55;;;;;;;;;;6175700;23;20357;-65
2023/06/01 08:30:20;;;;;;;4.72;2.58;;;;;;;;;;6176473;23;20040;-65
2023/06/01 08:32:53;;;;;;;5.43;2.72;;;;;;;;;;6175682;23;20021;-54
2023/06/01 08:35:21;;;;;;;3.30;2.20;;;;;;;;;;6175502;23;20199;-59
2023/06/01 08:37:48;;;;;;;7.38;2.42;;;;;;;;;;6171411;23;20020;-59
2023/06/01 08:40:23;;;;;;;7.40;2.72;;;;;;;;;;6175509;23;20029;-59
2023/06/01 08:42:50;;;;;;;4.70;2.40;;;;;;;;;;6176650;23;20025;-59
2023/06/01 08:45:25;;;;;;;7.57;2.42;;;;;;;;;;6174524;23;20025;-58
2023/06/01 08:47:52;;;;;;;;;;;;;;;;;;6175863;23;20032;-59
2023/06/01 08:50:27;;;;;;;4.95;2.20;;;;;;;;;;6173321;23;20430;-60
2023/06/01 08:52:55;;;;;;;4.40;2.22;;;;;;;;;;6177085;23;20436;-52
2023/06/01 08:55:23;;;;;;;5.68;2.08;;;;;;;;;;6175076;23;20099;-52
2023/06/01 08:57:57;;;;;;;5.75;2.53;;;;;;;;;;6172114;23;20025;-51
2023/06/01 09:00:25;;;;;;;4.35;2.28;;;;;;;;;;6173011;23;20667;-52
2023/06/01 09:02:59;;;;;;;4.35;1.90;;;;;;;;;;6175956;23;20084;-48
2023/06/01 09:05:27;;;;;;;2.45;1.65;;;;;;;;;;6176582;23;20025;-59
2023/06/01 09:07:54;;;;;;;8.02;1.98;;;;;;;;;;6172316;23;20032;-62
2023/06/01 09:10:35;;;;;;;6.03;1.65;;;;;;;;;;6175921;23;20362;-61
2023/06/01 09:13:09;;;;;;;4.00;1.80;;;;;;;;;;6174653;23;20021;-62
2023/06/01 09:15:52;;;;;;;3.70;1.92;;;;;;;;;;6174453;23;20501;-62
2023/06/01 09:18:20;;;;;;;3.47;1.83;;;;;;;;;;6176040;23;20496;-62
2023/06/01 09:20:56;;;;;;;6.65;1.85;;;;;;;;;;6175567;23;20485;-54
2023/06/01 09:23:29;;;;;;;6.88;1.70;;;;;;;;;;6175663;23;20029;-52
2023/06/01 09:26:10;;;;;;;4.80;1.73;;;;;;;;;;6174283;23;20083;-51
2023/06/01 09:28:55;;;;;;;4.03;1.73;;;;;;;;;;6175645;23;20424;-49
2023/06/01 09:31:36;;;;;;;2.78;1.58;;;;;;;;;;6175769;23;20084;-59
2023/06/01 09:34:04;;;;;;;1.92;1.23;;;;;;;;;;6174550;23;20083;-54
2023/06/01 09:36:38;;;;;;;2.35;1.15;;;;;;;;;;6177101;23;20041;-51
2023/06/01 09:39:16;;;;;;;2.92;1.05;;;;;;;;;;6175530;23;20083;-52
2023/06/01 09:42:01;;;;;;;3.13;1.33;;;;;;;;;;6174950;23;20025;-51
2023/06/01 09:44:30;;;;;;;2.47;1.40;;;;;;;;;;6171012;23;20298;-52
2023/06/01 09:47:05;;;;;;;3.35;1.42;;;;;;;;;;6169799;23;20083;-50
2023/06/01 09:49:34;;;;;;;2.58;1.38;;;;;;;;;;6177706;23;20029;-52
2023/06/01 09:52:04;;;;;;;6.57;1.50;;;;;;;;;;6171426;23;20064;-55
2023/06/01 09:54:40;;;;;;;1.75;1.45;;;;;;;;;;6174535;23;20389;-54
2023/06/01 09:57:08;;;;;;;3.55;1.30;;;;;;;;;;6174356;23;20067;-55
2023/06/01 09:59:43;;;;;;;7.80;1.55;;;;;;;;;;6176958;23;20028;-56
2023/06/01 10:02:18;;;;;;;3.10;1.20;;;;;;;;;;6174524;23;20029;-59
2023/06/01 10:04:53;;;;;;;5.57;1.75;;;;;;;;;;6173876;23;20025;-59
2023/06/01 10:07:21;;;;;;;5.60;1.15;;;;;;;;;;6174777;23;20025;-60
2023/06/01 10:10:03;;;;;;;3.60;1.20;;;;;;;;;;6174354;23;20040;-59
2023/06/01 10:12:31;;;;;;;5.15;1.38;;;;;;;;;;6176121;23;20528;-59
2023/06/01 10:15:05;;;;;;;2.13;1.13;;;;;;;;;;6174687;23;20025;-59
2023/06/01 10:17:47;;;;;;;3.30;1.15;;;;;;;;;;6176360;23;20222;-59
2023/06/01 10:20:20;;;;;;;4.28;1.55;;;;;;;;;;6174539;23;20536;-59
2023/06/01 10:22:48;;;;;;;2.08;1.30;;;;;;;;;;6173747;23;20444;-59
2023/06/01 10:25:18;;;;;;;2.20;1.10;;;;;;;;;;6174159;23;20044;-59
2023/06/01 10:28:10;;;;;;;3.30;1.25;;;;;;;;;;6176160;23;20083;-65
2023/06/01 10:30:46;;;;;;;2.88;0.88;;;;;;;;;;6176344;23;20441;-57
2023/06/01 10:33:14;;;;;;;2.22;1.05;;;;;;;;;;6174358;23;20099;-58
2023/06/01 10:35:52;;;;;;;1.05;0.77;;;;;;;;;;6174972;23;20043;-58
2023/06/01 10:38:25;;;;;;;3.22;1.13;;;;;;;;;;6172047;23;20025;-57
2023/06/01 10:40:53;;;;;;;3.58;1.27;;;;;;;;;;6174193;23;20660;-58
2023/06/01 10:43:35;;;;;;;2.15;0.88;;;;;;;;;;6174054;23;20087;-55
2023/06/01 10:46:03;;;;;;;4.10;0.90;;;;;;;;;;6174058;23;20493;-56
2023/06/01 10:48:56;;;;;;;2.80;0.82;;;;;;;;;;6174865;23;20071;-55
2023/06/01 10:51:24;;;;;;;2.05;0.65;;;;;;;;;;6175599;23;20460;-57
2023/06/01 10:54:18;;;;;;;4.35;0.90;;;;;;;;;;6175034;23;20021;-57
2023/06/01 10:56:45;;;;;;;1.55;0.60;;;;;;;;;;6176028;23;20018;-52
2023/06/01 10:59:19;;;;;;;1.27;0.80;;;;;;;;;;6174462;23;20083;-50
2023/06/01 11:01:47;;;;;;;2.08;0.93;;;;;;;;;;6170365;23;20513;-49
2023/06/01 11:04:35;;;;;;;1.70;0.70;;;;;;;;;;6175763;23;20236;-50
2023/06/01 11:07:22;;;;;;;1.58;0.82;;;;;;;;;;6170033;23;20025;-50
2023/06/01 11:10:03;;;;;;;3.50;1.20;;;;;;;;;;6173323;23;20610;-54
2023/06/01 11:12:55;;;;;;;3.53;0.75;;;;;;;;;;6174735;23;20029;-52
2023/06/01 11:15:28;;;;;;;3.13;0.75;;;;;;;;;;6170790;23;20579;-54
2023/06/01 11:17:56;;;;;;;4.60;0.70;;;;;;;;;;6176613;23;20091;-52
2023/06/01 11:20:39;;;;;;;0.85;0.70;;;;;;;;;;6172758;23;20017;-51
2023/06/01 11:23:10;;;;;;;2.28;0.93;;;;;;;;;;6172757;23;20035;-52
2023/06/01 11:25:45;;;;;;;1.52;0.60;;;;;;;;;;6172466;23;20061;-55
2023/06/01 11:28:12;;;;;;;2.42;0.70;;;;;;;;;;6176786;23;20339;-51
2023/06/01 11:30:46;;;;;;;1.30;0.65;;;;;;;;;;6175603;23;20104;-55
2023/06/01 11:33:14;;;;;;;1.13;0.63;;;;;;;;;;6176485;23;20393;-56
2023/06/01 11:35:57;;;;;;;3.15;0.80;;;;;;;;;;6177118;23;20024;-57
2023/06/01 11:38:24;;;;;;;1.00;0.60;;;;;;;;;;6175068;23;20024;-55
2023/06/01 11:40:59;;;;;;;1.77;1.02;;;;;;;;;;6178289;23;20080;-55
2023/06/01 11:43:28;;;;;;;0.80;0.60;;;;;;;;;;6176892;23;20088;-58
2023/06/01 11:46:09;;;;;;;1.80;0.80;;;;;;;;;;6176178;23;20075;-57
2023/06/01 11:49:05;;;;;;;7.05;0.65;;;;;;;;;;6175471;23;20067;-58
2023/06/01 11:51:40;;;;;;;3.70;0.70;;;;;;;;;;6172972;23;20049;-57
2023/06/01 11:54:08;;;;;;;3.78;0.85;;;;;;;;;;6176611;23;20028;-64
2023/06/01 11:56:43;;;;;;;3.65;1.13;;;;;;;;;;6175596;23;20354;-54
2023/06/01 11:59:13;;;;;;;6.28;0.70;;;;;;;;;;6175996;23;20559;-52
2023/06/01 12:01:43;;;;;;;1.80;0.55;;;;;;;;;;6177013;23;20029;-52
2023/06/01 12:04:18;;;;;;;1.17;0.93;;;;;;;;;;6175312;23;20036;-53
2023/06/01 12:06:45;;;;;;;1.30;0.85;;;;;;;;;;6176054;23;20104;-56
2023/06/01 12:09:13;;;;;;;5.95;1.38;;;;;;;;;;6174754;23;20265;-53
2023/06/01 12:11:55;;;;;;;1.73;0.88;;;;;;;;;;6175702;23;20065;-61
2023/06/01 12:14:22;;;;;;;1.50;0.82;;;;;;;;;;6175834;23;20024;-62
2023/06/01 12:16:58;;;;;;;2.95;1.15;;;;;;;;;;6177197;23;20017;-62
2023/06/01 12:19:26;;;;;;;0.80;0.57;;;;;;;;;;6176126;23;20029;-62
2023/06/01 12:21:55;;;;;;;1.40;0.80;;;;;;;;;;6176462;23;20025;-64
2023/06/01 12:24:32;;;;;;;3.42;0.77;;;;;;;;;;6177012;23;20130;-54
2023/06/01 12:27:02;;;;;;;1.45;0.75;;;;;;;;;;6175988;23;20021;-53
2023/06/01 12:29:41;;;;;;;2.20;0.85;;;;;;;;;;6175177;23;20017;-53
2023/06/01 12:32:09;;;;;;;3.35;0.80;;;;;;;;;;6173672;23;20048;-54
2023/06/01 12:34:47;;;;;;;1.92;0.95;;;;;;;;;;6176871;23;20493;-51
2023/06/01 12:37:16;;;;;;;1.75;0.57;;;;;;;;;;6173969;23;20025;-54
2023/06/01 12:39:53;;;;;;;4.75;0.90;;;;;;;;;;6174986;23;20025;-57
2023/06/01 12:42:35;;;;;;;3.00;1.00;;;;;;;;;;6175641;23;20347;-56
2023/06/01 12:45:09;;;;;;;1.77;0.85;;;;;;;;;;6174564;23;20024;-58
2023/06/01 12:47:40;;;;;;;1.63;0.90;;;;;;;;;;6173560;23;20025;-53
2023/06/01 12:50:14;;;;;;;4.72;1.00;;;;;;;;;;6175627;23;20027;-52
2023/06/01 12:52:42;;;;;;;5.82;1.10;;;;;;;;;;6175375;23;20021;-54
2023/06/01 12:55:17;;;;;;;3.25;0.88;;;;;;;;;;6175483;23;20025;-51
2023/06/01 12:57:52;;;;;;;2.10;0.60;;;;;;;;;;6176085;23;20021;-55
2023/06/01 13:00:26;;;;;;;2.97;0.75;;;;;;;;;;6175036;23;20362;-57
2023/06/01 13:03:14;;;;;;;6.18;0.90;;;;;;;;;;6175127;23;20021;-56
2023/06/01 13:05:49;;;;;;;1.90;0.88;;;;;;;;;;6175122;23;20560;-56
2023/06/01 13:08:23;;;;;;;2.63;0.90;;;;;;;;;;6174738;23;20080;-61
2023/06/01 13:11:04;;;;;;;1.90;0.65;;;;;;;;;;6176622;23;20087;-61
2023/06/01 13:13:38;;;;;;;1.25;0.70;;;;;;;;;;6176351;23;20025;-61
2023/06/01 13:16:10;;;;;;;1.92;0.77;;;;;;;;;;6175562;23;20025;-61
2023/06/01 13:18:37;;;;;;;1.40;0.90;;;;;;;;;;6170147;23;20428;-54
2023/06/01 13:21:10;;;;;;;3.75;1.10;;;;;;;;;;6174410;23;20078;-65
2023/06/01 13:23:38;;;;;;;1.75;1.00;;;;;;;;;;6175129;23;20025;-65
2023/06/01 13:26:05;;;;;;;1.10;0.98;;;;;;;;;;6175563;23;20024;-65
2023/06/01 13:28:38;;;;;;;4.40;1.00;;;;;;;;;;6174674;23;20096;-64
2023/06/01 13:31:05;;;;;;;2.38;1.10;;;;;;;;;;6175043;23;20489;-63
2023/06/01 13:33:33;;;;;;;1.95;0.98;;;;;;;;;;6176024;23;20672;-63
2023/06/01 13:36:06;;;;;;;3.33;0.98;;;;;;;;;;6174611;23;20025;-55
2023/06/01 13:38:40;;;;;;;1.33;0.98;;;;;;;;;;6151925;23;20567;-52
2023/06/01 13:41:08;;;;;;;2.28;0.80;;;;;;;;;;6174476;23;20428;-55
2023/06/01 13:43:37;;;;;;;;;;;;;;;;;;6171042;23;20032;-56
2023/06/01 13:46:11;;;;;;;1.90;0.80;;;;;;;;;;6175449;23;20360;-60
2023/06/01 13:48:39;;;;;;;4.05;0.77;;;;;;;;;;6171219;23;20028;-59
2023/06/01 13:51:12;;;;;;;1.83;0.90;;;;;;;;;;6174726;23;20029;-63
2023/06/01 13:53:40;;;;;;;2.63;0.82;;;;;;;;;;6171592;23;20021;-63
2023/06/01 13:56:07;;;;;;;1.40;0.90;;;;;;;;;;6171748;23;20199;-64
2023/06/01 13:58:41;;;;;;;1.10;0.70;;;;;;;;;;6174692;23;20029;-63
2023/06/01 14:01:09;;;;;;;;;;;;;;;;;;6169939;23;20021;-62
2023/06/01 14:03:43;;;;;;;3.13;1.08;;;;;;;;;;6174799;23;19978;-63
2023/06/01 14:06:10;;;;;;;8.10;1.02;;;;;;;;;;6173102;23;20025;-56
2023/06/01 14:08:52;;;;;;;1.92;0.70;;;;;;;;;;6175025;23;20100;-54
2023/06/01 14:11:27;;;;;;;1.52;0.95;;;;;;;;;;6175257;23;20551;-53
2023/06/01 14:14:00;;;;;;;1.73;0.75;;;;;;;;;;6173065;23;20043;-54
2023/06/01 14:16:27;;;;;;;2.80;0.82;;;;;;;;;;6172054;23;20579;-54
2023/06/01 14:19:03;;;;;;;3.50;0.68;;;;;;;;;;6170952;23;20025;-60
2023/06/01 14:21:30;;;;;;;2.47;0.80;;;;;;;;;;6169446;23;20021;-60
2023/06/01 14:24:04;;;;;;;1.15;0.82;;;;;;;;;;6168651;23;20029;-61
2023/06/01 14:26:32;;;;;;;1.60;0.75;;;;;;;;;;6172910;23;20132;-60
2023/06/01 14:28:59;;;;;;;1.67;1.13;;;;;;;;;;6175101;23;20405;-60
2023/06/01 14:31:33;;;;;;;0.98;0.80;;;;;;;;;;6174662;23;20021;-60
2023/06/01 14:34:00;;;;;;;3.22;1.08;;;;;;;;;;6174936;23;20025;-47
2023/06/01 14:36:28;;;;;;;1.10;1.00;;;;;;;;;;6175221;23;20029;-48
2023/06/01 14:39:13;;;;;;;1.70;1.00;;;;;;;;;;6175922;23;20044;-48
2023/06/01 14:41:41;;;;;;;1.50;1.00;;;;;;;;;;6176004;23;20025;-46
2023/06/01 14:44:14;;;;;;;2.88;1.10;;;;;;;;;;6174226;23;20025;-63
2023/06/01 14:46:42;;;;;;;2.53;1.17;;;;;;;;;;6174860;23;20099;-63
2023/06/01 14:49:09;;;;;;;1.17;0.85;;;;;;;;;;6169815;23;20061;-63
2023/06/01 14:51:46;;;;;;;4.22;1.23;;;;;;;;;;6176066;23;20033;-63
2023/06/01 14:54:13;;;;;;;1.83;1.00;;;;;;;;;;6172368;23;20559;-63
2023/06/01 14:56:53;;;;;;;2.88;1.05;;;;;;;;;;6173440;23;20436;-63
2023/06/01 14:59:27;;;;;;;1.17;0.82;;;;;;;;;;6176857;23;20496;-62
2023/06/01 15:02:02;;;;;;;2.17;1.15;;;;;;;;;;6178542;23;20032;-58
2023/06/01 15:04:30;;;;;;;4.68;0.90;;;;;;;;;;6177593;23;20075;-58
2023/06/01 15:06:57;;;;;;;1.52;0.95;;;;;;;;;;6174460;23;20025;-58
2023/06/01 15:09:44;;;;;;;4.68;1.42;;;;;;;;;;6174222;23;20029;-59
2023/06/01 15:12:18;;;;;;;4.65;1.50;;;;;;;;;;6177962;23;20044;-59
2023/06/01 15:14:52;;;;;;;3.10;0.80;;;;;;;;;;6173516;23;20032;-59
2023/06/01 15:17:19;;;;;;;1.70;0.80;;;;;;;;;;6178347;23;20079;-60
2023/06/01 15:19:53;;;;;;;1.50;1.20;;;;;;;;;;6176874;23;20025;-59
2023/06/01 15:22:21;;;;;;;3.17;0.90;;;;;;;;;;6177749;23;20555;-60
2023/06/01 15:25:01;;;;;;;1.83;0.80;;;;;;;;;;6174822;23;20489;-59
2023/06/01 15:27:28;;;;;;;3.35;1.15;;;;;;;;;;6172397;23;20496;-59
2023/06/01 15:30:03;;;;;;;4.00;1.08;;;;;;;;;;6174609;23;20079;-52
2023/06/01 15:32:30;;;;;;;3.47;1.33;;;;;;;;;;6175332;23;20032;-49
2023/06/01 15:35:04;;;;;;;5.90;1.25;;;;;;;;;;6175476;23;20032;-49
2023/06/01 15:37:32;;;;;;;3.95;1.13;;;;;;;;;;6173304;23;20099;-50
2023/06/01 15:40:12;;;;;;;6.55;1.20;;;;;;;;;;6175962;23;20032;-54
2023/06/01 15:42:39;;;;;;;4.57;1.00;;;;;;;;;;6175592;23;20017;-50
2023/06/01 15:45:13;;;;;;;4.30;1.20;;;;;;;;;;6174382;23;20075;-60
2023/06/01 15:47:40;;;;;;;3.45;0.95;;;;;;;;;;6178616;23;20075;-59
2023/06/01 15:50:08;;;;;;;1.58;1.10;;;;;;;;;;6175700;23;20048;-59
2023/06/01 15:52:42;;;;;;;4.53;1.23;;;;;;;;;;6173687;23;20017;-59
2023/06/01 15:55:10;;;;;;;1.58;1.08;;;;;;;;;;6174751;23;20410;-59
2023/06/01 15:57:43;;;;;;;3.55;0.90;;;;;;;;;;6173751;23;20556;-59
2023/06/01 16:00:11;;;;;;;5.80;1.05;;;;;;;;;;6176557;23;20052;-59
2023/06/01 16:02:38;;;;;;;4.38;1.27;;;;;;;;;;6176252;23;20551;-59
2023/06/01 16:05:13;;;;;;;1.52;1.10;;;;;;;;;;6174746;23;20025;-59
2023/06/01 16:07:40;;;;;;;2.75;1.20;;;;;;;;;;6176500;23;20028;-59
2023/06/01 16:10:21;;;;;;;2.67;1.20;;;;;;;;;;6174998;23;20084;-53
2023/06/01 16:12:48;;;;;;;2.10;1.00;;;;;;;;;;6175801;23;20142;-62
2023/06/01 16:15:22;;;;;;;1.92;1.25;;;;;;;;;;6175998;23;20087;-63
2023/06/01 16:17:49;;;;;;;2.83;1.35;;;;;;;;;;6176875;23;20025;-62
2023/06/01 16:20:23;;;;;;;4.32;1.35;;;;;;;;;;6176336;23;20028;-63
2023/06/01 16:22:51;;;;;;;6.68;1.65;;;;;;;;;;6178150;23;20083;-63
2023/06/01 16:25:25;;;;;;;7.97;1.48;;;;;;;;;;6175526;23;20028;-63
2023/06/01 16:27:53;;;;;;;2.05;1.13;;;;;;;;;;6176715;23;20028;-46
2023/06/01 16:30:23;;;;;;;4.82;1.60;;;;;;;;;;6174708;23;20587;-50
2023/06/01 16:32:57;;;;;;;5.13;1.23;;;;;;;;;;6173926;23;20029;-47
2023/06/01 16:35:25;;;;;;;3.45;1.40;;;;;;;;;;6168689;23;20025;-46
2023/06/01 16:37:52;;;;;;;4.93;1.27;;;;;;;;;;6170776;23;20083;-52
2023/06/01 16:40:25;;;;;;;5.63;1.67;;;;;;;;;;6172780;23;20031;-50
2023/06/01 16:42:52;;;;;;;2.25;1.35;;;;;;;;;;6174380;23;20029;-51
2023/06/01 16:45:26;;;;;;;6.05;1.80;;;;;;;;;;6168161;23;20104;-52
2023/06/01 16:47:57;;;;;;;3.58;1.30;;;;;;;;;;6171244;23;20025;-48
2023/06/01 16:50:31;;;;;;;3.13;1.38;;;;;;;;;;6174107;23;20032;-50
2023/06/01 16:52:59;;;;;;;4.50;1.50;;;;;;;;;;6174680;23;20029;-49
2023/06/01 16:55:26;;;;;;;3.58;1.33;;;;;;;;;;6174844;23;20092;-59
2023/06/01 16:58:01;;;;;;;3.58;1.52;;;;;;;;;;6174676;23;20021;-59
2023/06/01 17:00:28;;;;;;;3.70;1.50;;;;;;;;;;6174645;23;20331;-56
2023/06/01 17:02:55;;;;;;;5.95;1.98;;;;;;;;;;6173808;23;20079;-58
2023/06/01 17:05:29;;;;;;;2.80;1.33;;;;;;;;;;6173115;23;20063;-49
2023/06/01 17:07:56;;;;;;;3.78;1.58;;;;;;;;;;6175042;23;20095;-58
2023/06/01 17:10:37;;;;;;;5.60;1.42;;;;;;;;;;6173402;23;20025;-58
2023/06/01 17:13:11;;;;;;;2.25;1.27;;;;;;;;;;6171819;23;20714;-58
2023/06/01 17:15:45;;;;;;;4.55;1.33;;;;;;;;;;6168655;23;20100;-59
2023/06/01 17:18:12;;;;;;;2.15;1.40;;;;;;;;;;6170590;23;20029;-58
2023/06/01 17:20:40;;;;;;;;;;;;;;;;;;6171669;23;20025;-59
2023/06/01 17:23:13;;;;;;;4.40;1.30;;;;;;;;;;6167685;23;19987;-58